sensor_id;sensor_type;location;lat;lon;timestamp;P1;durP1;ratioP1;P2;durP2;ratioP2
22030;SDS011;11179;52.106;21.024;2023-04-01T00:00:53;24.07;;;11.63;;
22030;SDS011;11179;52.106;21.024;2023-04-01T00:03:20;23.93;;;11.33;;
22030;SDS011;11179;52.106;21.024;2023-04-01T00:05:45;19.67;;;10.57;;
22030;SDS011;11179;52.106;21.024;2023-04-01T00:08:11;21.77;;;11.00;;
22030;SDS011;11179;52.106;21.024;2023-04-01T00:10:36;20.87;;;10.50;;
22030;SDS011;11179;52.106;21.024;2023-04-01T00:13:02;26.13;;;11.07;;
22030;SDS011;11179;52.106;21.024;2023-04-01T00:15:28;24.27;;;12.30;;
22030;SDS011;11179;52.106;21.024;2023-04-01T00:17:53;23.77;;;10.90;;
22030;SDS011;11179;52.106;21.024;2023-04-01T00:20:19;19.47;;;11.40;;
22030;SDS011;11179;52.106;21.024;2023-04-01T00:22:44;22.83;;;10.10;;
22030;SDS011;11179;52.106;21.024;2023-04-01T00:25:10;21.40;;;10.90;;
22030;SDS011;11179;52.106;21.024;2023-04-01T00:27:36;19.50;;;10.80;;
22030;SDS011;11179;52.106;21.024;2023-04-01T00:30:01;20.43;;;10.77;;
22030;SDS011;11179;52.106;21.024;2023-04-01T00:32:27;24.37;;;10.37;;
22030;SDS011;11179;52.106;21.024;2023-04-01T00:34:52;20.50;;;11.20;;
22030;SDS011;11179;52.106;21.024;2023-04-01T00:37:18;24.00;;;11.10;;
22030;SDS011;11179;52.106;21.024;2023-04-01T00:39:45;23.00;;;11.20;;
22030;SDS011;11179;52.106;21.024;2023-04-01T00:42:11;21.77;;;10.93;;
22030;SDS011;11179;52.106;21.024;2023-04-01T00:44:37;27.43;;;10.97;;
22030;SDS011;11179;52.106;21.024;2023-04-01T00:47:04;22.07;;;11.40;;
22030;SDS011;11179;52.106;21.024;2023-04-01T00:49:30;19.23;;;11.00;;
22030;SDS011;11179;52.106;21.024;2023-04-01T00:52:02;19.13;;;9.30;;
22030;SDS011;11179;52.106;21.024;2023-04-01T00:54:30;25.90;;;10.50;;
22030;SDS011;11179;52.106;21.024;2023-04-01T00:59:39;22.13;;;11.23;;
22030;SDS011;11179;52.106;21.024;2023-04-01T01:02:08;28.53;;;11.77;;
22030;SDS011;11179;52.106;21.024;2023-04-01T01:04:36;24.33;;;10.90;;
22030;SDS011;11179;52.106;21.024;2023-04-01T01:12:44;27.50;;;10.90;;
22030;SDS011;11179;52.106;21.024;2023-04-01T01:26:20;22.40;;;12.10;;
22030;SDS011;11179;52.106;21.024;2023-04-01T01:37:15;22.70;;;11.87;;
22030;SDS011;11179;52.106;21.024;2023-04-01T01:39:43;24.20;;;12.63;;
22030;SDS011;11179;52.106;21.024;2023-04-01T01:42:13;23.17;;;11.73;;
22030;SDS011;11179;52.106;21.024;2023-04-01T01:44:42;27.73;;;11.97;;
22030;SDS011;11179;52.106;21.024;2023-04-01T01:47:10;26.07;;;12.47;;
22030;SDS011;11179;52.106;21.024;2023-04-01T01:49:36;26.20;;;11.80;;
22030;SDS011;11179;52.106;21.024;2023-04-01T01:52:05;23.47;;;11.60;;
22030;SDS011;11179;52.106;21.024;2023-04-01T01:54:30;27.97;;;11.83;;
22030;SDS011;11179;52.106;21.024;2023-04-01T01:56:59;22.57;;;12.57;;
22030;SDS011;11179;52.106;21.024;2023-04-01T01:59:29;25.63;;;11.47;;
22030;SDS011;11179;52.106;21.024;2023-04-01T02:01:57;26.70;;;12.57;;
22030;SDS011;11179;52.106;21.024;2023-04-01T02:04:24;24.60;;;14.20;;
22030;SDS011;11179;52.106;21.024;2023-04-01T02:06:58;25.27;;;13.70;;
22030;SDS011;11179;52.106;21.024;2023-04-01T02:09:27;24.67;;;12.80;;
22030;SDS011;11179;52.106;21.024;2023-04-01T02:11:58;23.37;;;12.30;;
22030;SDS011;11179;52.106;21.024;2023-04-01T02:17:33;27.50;;;12.73;;
22030;SDS011;11179;52.106;21.024;2023-04-01T02:20:04;18.50;;;11.17;;
22030;SDS011;11179;52.106;21.024;2023-04-01T02:22:35;22.87;;;11.90;;
22030;SDS011;11179;52.106;21.024;2023-04-01T02:25:08;23.40;;;12.00;;
22030;SDS011;11179;52.106;21.024;2023-04-01T02:27:37;23.03;;;12.83;;
22030;SDS011;11179;52.106;21.024;2023-04-01T02:30:04;24.77;;;12.70;;
22030;SDS011;11179;52.106;21.024;2023-04-01T02:32:30;26.10;;;12.87;;
22030;SDS011;11179;52.106;21.024;2023-04-01T02:34:58;20.90;;;11.77;;
22030;SDS011;11179;52.106;21.024;2023-04-01T02:37:25;22.77;;;13.20;;
22030;SDS011;11179;52.106;21.024;2023-04-01T02:39:50;25.50;;;12.63;;
22030;SDS011;11179;52.106;21.024;2023-04-01T02:42:15;27.43;;;11.93;;
22030;SDS011;11179;52.106;21.024;2023-04-01T02:44:41;22.00;;;11.30;;
22030;SDS011;11179;52.106;21.024;2023-04-01T02:47:06;23.97;;;12.00;;
22030;SDS011;11179;52.106;21.024;2023-04-01T02:49:31;25.57;;;12.47;;
22030;SDS011;11179;52.106;21.024;2023-04-01T02:51:57;23.00;;;12.13;;
22030;SDS011;11179;52.106;21.024;2023-04-01T02:54:22;22.37;;;12.30;;
22030;SDS011;11179;52.106;21.024;2023-04-01T02:56:47;21.73;;;12.43;;
22030;SDS011;11179;52.106;21.024;2023-04-01T02:59:13;21.03;;;12.13;;
22030;SDS011;11179;52.106;21.024;2023-04-01T03:01:38;26.27;;;13.67;;
22030;SDS011;11179;52.106;21.024;2023-04-01T03:04:04;22.90;;;13.17;;
22030;SDS011;11179;52.106;21.024;2023-04-01T03:06:29;23.33;;;12.53;;
22030;SDS011;11179;52.106;21.024;2023-04-01T03:08:55;31.70;;;14.20;;
22030;SDS011;11179;52.106;21.024;2023-04-01T03:11:21;30.63;;;13.27;;
22030;SDS011;11179;52.106;21.024;2023-04-01T03:13:46;31.87;;;13.20;;
22030;SDS011;11179;52.106;21.024;2023-04-01T03:16:12;24.80;;;13.20;;
22030;SDS011;11179;52.106;21.024;2023-04-01T03:18:37;27.03;;;14.03;;
22030;SDS011;11179;52.106;21.024;2023-04-01T03:23:57;26.77;;;13.03;;
22030;SDS011;11179;52.106;21.024;2023-04-01T03:26:23;27.63;;;12.00;;
22030;SDS011;11179;52.106;21.024;2023-04-01T03:28:48;26.50;;;13.97;;
22030;SDS011;11179;52.106;21.024;2023-04-01T03:31:14;23.70;;;13.03;;
22030;SDS011;11179;52.106;21.024;2023-04-01T03:33:40;25.47;;;13.60;;
22030;SDS011;11179;52.106;21.024;2023-04-01T03:36:06;29.80;;;13.67;;
22030;SDS011;11179;52.106;21.024;2023-04-01T03:38:33;22.37;;;13.10;;
22030;SDS011;11179;52.106;21.024;2023-04-01T03:40:59;26.07;;;13.80;;
22030;SDS011;11179;52.106;21.024;2023-04-01T03:43:26;32.00;;;13.67;;
22030;SDS011;11179;52.106;21.024;2023-04-01T03:45:52;27.00;;;14.13;;
22030;SDS011;11179;52.106;21.024;2023-04-01T03:48:17;27.90;;;14.27;;
22030;SDS011;11179;52.106;21.024;2023-04-01T03:50:43;25.70;;;13.30;;
22030;SDS011;11179;52.106;21.024;2023-04-01T03:53:09;28.87;;;14.67;;
22030;SDS011;11179;52.106;21.024;2023-04-01T03:55:35;30.40;;;16.13;;
22030;SDS011;11179;52.106;21.024;2023-04-01T03:58:02;35.37;;;15.60;;
22030;SDS011;11179;52.106;21.024;2023-04-01T04:00:28;30.80;;;14.80;;
22030;SDS011;11179;52.106;21.024;2023-04-01T04:02:55;27.07;;;15.10;;
22030;SDS011;11179;52.106;21.024;2023-04-01T04:05:21;30.80;;;16.80;;
22030;SDS011;11179;52.106;21.024;2023-04-01T04:07:50;33.57;;;16.47;;
22030;SDS011;11179;52.106;21.024;2023-04-01T04:10:16;27.97;;;13.50;;
22030;SDS011;11179;52.106;21.024;2023-04-01T04:12:41;27.27;;;15.90;;
22030;SDS011;11179;52.106;21.024;2023-04-01T04:15:07;29.60;;;16.30;;
22030;SDS011;11179;52.106;21.024;2023-04-01T04:17:33;27.80;;;15.33;;
22030;SDS011;11179;52.106;21.024;2023-04-01T04:19:58;27.20;;;15.40;;
22030;SDS011;11179;52.106;21.024;2023-04-01T04:22:24;30.17;;;15.93;;
22030;SDS011;11179;52.106;21.024;2023-04-01T04:24:49;34.77;;;15.80;;
22030;SDS011;11179;52.106;21.024;2023-04-01T04:27:14;26.60;;;15.57;;
22030;SDS011;11179;52.106;21.024;2023-04-01T04:29:40;29.83;;;15.50;;
22030;SDS011;11179;52.106;21.024;2023-04-01T04:32:05;35.50;;;16.70;;
22030;SDS011;11179;52.106;21.024;2023-04-01T04:34:31;30.17;;;16.00;;
22030;SDS011;11179;52.106;21.024;2023-04-01T04:36:56;31.43;;;17.10;;
22030;SDS011;11179;52.106;21.024;2023-04-01T04:39:21;33.33;;;17.10;;
22030;SDS011;11179;52.106;21.024;2023-04-01T04:41:47;33.03;;;15.10;;
22030;SDS011;11179;52.106;21.024;2023-04-01T04:44:12;31.70;;;16.50;;
22030;SDS011;11179;52.106;21.024;2023-04-01T04:46:37;30.60;;;15.03;;
22030;SDS011;11179;52.106;21.024;2023-04-01T04:49:04;28.23;;;15.50;;
22030;SDS011;11179;52.106;21.024;2023-04-01T04:51:29;28.40;;;16.40;;
22030;SDS011;11179;52.106;21.024;2023-04-01T04:53:55;35.10;;;16.53;;
22030;SDS011;11179;52.106;21.024;2023-04-01T04:56:20;29.00;;;15.37;;
22030;SDS011;11179;52.106;21.024;2023-04-01T04:58:47;32.77;;;16.93;;
22030;SDS011;11179;52.106;21.024;2023-04-01T05:01:14;32.57;;;16.43;;
22030;SDS011;11179;52.106;21.024;2023-04-01T05:03:40;28.80;;;15.57;;
22030;SDS011;11179;52.106;21.024;2023-04-01T05:06:07;28.10;;;14.40;;
22030;SDS011;11179;52.106;21.024;2023-04-01T05:08:34;27.47;;;14.93;;
22030;SDS011;11179;52.106;21.024;2023-04-01T05:11:00;27.40;;;14.33;;
22030;SDS011;11179;52.106;21.024;2023-04-01T05:13:27;28.60;;;14.70;;
22030;SDS011;11179;52.106;21.024;2023-04-01T05:15:53;25.33;;;14.10;;
22030;SDS011;11179;52.106;21.024;2023-04-01T05:18:19;22.23;;;13.50;;
22030;SDS011;11179;52.106;21.024;2023-04-01T05:20:51;21.17;;;12.77;;
22030;SDS011;11179;52.106;21.024;2023-04-01T05:23:18;21.63;;;12.13;;
22030;SDS011;11179;52.106;21.024;2023-04-01T05:25:45;23.40;;;11.77;;
22030;SDS011;11179;52.106;21.024;2023-04-01T05:28:11;21.47;;;11.83;;
22030;SDS011;11179;52.106;21.024;2023-04-01T05:30:39;20.00;;;11.27;;
22030;SDS011;11179;52.106;21.024;2023-04-01T05:33:05;18.60;;;10.70;;
22030;SDS011;11179;52.106;21.024;2023-04-01T05:35:30;22.70;;;12.33;;
22030;SDS011;11179;52.106;21.024;2023-04-01T05:37:55;24.63;;;11.57;;
22030;SDS011;11179;52.106;21.024;2023-04-01T05:40:21;23.43;;;12.97;;
22030;SDS011;11179;52.106;21.024;2023-04-01T05:42:46;21.63;;;10.50;;
22030;SDS011;11179;52.106;21.024;2023-04-01T05:45:11;20.57;;;11.20;;
22030;SDS011;11179;52.106;21.024;2023-04-01T05:47:40;22.30;;;12.20;;
22030;SDS011;11179;52.106;21.024;2023-04-01T05:50:05;22.27;;;11.13;;
22030;SDS011;11179;52.106;21.024;2023-04-01T05:52:31;24.70;;;11.90;;
22030;SDS011;11179;52.106;21.024;2023-04-01T05:54:56;22.23;;;12.30;;
22030;SDS011;11179;52.106;21.024;2023-04-01T05:57:22;20.27;;;11.30;;
22030;SDS011;11179;52.106;21.024;2023-04-01T05:59:47;23.47;;;12.80;;
22030;SDS011;11179;52.106;21.024;2023-04-01T06:02:12;30.60;;;14.50;;
22030;SDS011;11179;52.106;21.024;2023-04-01T06:04:41;24.47;;;12.70;;
22030;SDS011;11179;52.106;21.024;2023-04-01T06:07:13;23.30;;;13.20;;
22030;SDS011;11179;52.106;21.024;2023-04-01T06:09:40;29.20;;;15.30;;
22030;SDS011;11179;52.106;21.024;2023-04-01T06:12:22;35.03;;;16.20;;
22030;SDS011;11179;52.106;21.024;2023-04-01T06:25:47;28.70;;;15.60;;
22030;SDS011;11179;52.106;21.024;2023-04-01T06:29:27;27.23;;;15.50;;
22030;SDS011;11179;52.106;21.024;2023-04-01T06:31:44;32.90;;;17.17;;
22030;SDS011;11179;52.106;21.024;2023-04-01T06:40:21;32.70;;;16.90;;
22030;SDS011;11179;52.106;21.024;2023-04-01T06:53:21;32.17;;;17.47;;
22030;SDS011;11179;52.106;21.024;2023-04-01T06:56:11;27.70;;;15.13;;
22030;SDS011;11179;52.106;21.024;2023-04-01T06:58:50;30.17;;;17.77;;
22030;SDS011;11179;52.106;21.024;2023-04-01T07:01:52;28.90;;;16.77;;
22030;SDS011;11179;52.106;21.024;2023-04-01T07:04:15;24.87;;;15.67;;
22030;SDS011;11179;52.106;21.024;2023-04-01T07:06:48;26.87;;;14.93;;
22030;SDS011;11179;52.106;21.024;2023-04-01T07:09:19;25.00;;;14.20;;
22030;SDS011;11179;52.106;21.024;2023-04-01T07:11:47;26.90;;;15.43;;
22030;SDS011;11179;52.106;21.024;2023-04-01T07:14:24;28.23;;;14.53;;
22030;SDS011;11179;52.106;21.024;2023-04-01T07:16:56;30.37;;;16.80;;
22030;SDS011;11179;52.106;21.024;2023-04-01T07:22:35;24.77;;;15.10;;
22030;SDS011;11179;52.106;21.024;2023-04-01T07:25:11;29.00;;;16.83;;
22030;SDS011;11179;52.106;21.024;2023-04-01T07:27:39;27.37;;;16.23;;
22030;SDS011;11179;52.106;21.024;2023-04-01T07:30:12;25.20;;;15.23;;
22030;SDS011;11179;52.106;21.024;2023-04-01T07:32:54;26.13;;;15.37;;
22030;SDS011;11179;52.106;21.024;2023-04-01T07:43:18;26.50;;;15.90;;
22030;SDS011;11179;52.106;21.024;2023-04-01T07:48:58;28.00;;;15.53;;
22030;SDS011;11179;52.106;21.024;2023-04-01T07:51:41;23.40;;;14.47;;
22030;SDS011;11179;52.106;21.024;2023-04-01T08:05:04;23.87;;;15.03;;
22030;SDS011;11179;52.106;21.024;2023-04-01T08:07:28;28.23;;;14.23;;
22030;SDS011;11179;52.106;21.024;2023-04-01T08:10:09;24.23;;;14.63;;
22030;SDS011;11179;52.106;21.024;2023-04-01T08:15:19;25.07;;;14.90;;
22030;SDS011;11179;52.106;21.024;2023-04-01T08:18:06;26.40;;;14.77;;
22030;SDS011;11179;52.106;21.024;2023-04-01T08:20:48;24.87;;;15.30;;
22030;SDS011;11179;52.106;21.024;2023-04-01T08:23:19;25.27;;;14.73;;
22030;SDS011;11179;52.106;21.024;2023-04-01T08:26:48;32.30;;;14.53;;
22030;SDS011;11179;52.106;21.024;2023-04-01T08:29:09;23.83;;;13.27;;
22030;SDS011;11179;52.106;21.024;2023-04-01T08:34:26;21.20;;;13.27;;
22030;SDS011;11179;52.106;21.024;2023-04-01T08:36:58;25.53;;;14.57;;
22030;SDS011;11179;52.106;21.024;2023-04-01T08:56:18;23.80;;;14.40;;
22030;SDS011;11179;52.106;21.024;2023-04-01T09:05:35;25.10;;;14.70;;
22030;SDS011;11179;52.106;21.024;2023-04-01T09:10:56;22.63;;;13.87;;
22030;SDS011;11179;52.106;21.024;2023-04-01T09:21:54;25.63;;;14.23;;
22030;SDS011;11179;52.106;21.024;2023-04-01T09:24:32;21.23;;;12.90;;
22030;SDS011;11179;52.106;21.024;2023-04-01T09:27:14;21.37;;;12.60;;
22030;SDS011;11179;52.106;21.024;2023-04-01T09:29:54;22.57;;;13.90;;
22030;SDS011;11179;52.106;21.024;2023-04-01T09:40:37;24.17;;;14.10;;
22030;SDS011;11179;52.106;21.024;2023-04-01T09:54:07;17.10;;;9.63;;
22030;SDS011;11179;52.106;21.024;2023-04-01T09:59:15;19.90;;;11.07;;
22030;SDS011;11179;52.106;21.024;2023-04-01T10:04:31;11.67;;;6.63;;
22030;SDS011;11179;52.106;21.024;2023-04-01T10:07:22;13.70;;;6.70;;
22030;SDS011;11179;52.106;21.024;2023-04-01T10:37:03;4.90;;;2.50;;
22030;SDS011;11179;52.106;21.024;2023-04-01T10:53:55;6.20;;;3.10;;
22030;SDS011;11179;52.106;21.024;2023-04-01T11:11:17;7.87;;;3.60;;
22030;SDS011;11179;52.106;21.024;2023-04-01T11:16:55;7.70;;;4.00;;
22030;SDS011;11179;52.106;21.024;2023-04-01T11:30:03;6.57;;;3.80;;
22030;SDS011;11179;52.106;21.024;2023-04-01T11:43:48;7.40;;;4.40;;
22030;SDS011;11179;52.106;21.024;2023-04-01T11:46:24;8.20;;;4.33;;
22030;SDS011;11179;52.106;21.024;2023-04-01T11:49:20;7.80;;;4.50;;
22030;SDS011;11179;52.106;21.024;2023-04-01T11:52:12;7.43;;;4.50;;
22030;SDS011;11179;52.106;21.024;2023-04-01T12:00:10;6.73;;;4.00;;
22030;SDS011;11179;52.106;21.024;2023-04-01T12:06:16;10.00;;;4.90;;
22030;SDS011;11179;52.106;21.024;2023-04-01T12:08:46;10.87;;;5.17;;
22030;SDS011;11179;52.106;21.024;2023-04-01T12:11:25;10.17;;;5.77;;
22030;SDS011;11179;52.106;21.024;2023-04-01T12:14:04;10.50;;;6.00;;
22030;SDS011;11179;52.106;21.024;2023-04-01T12:28:41;10.43;;;6.10;;
22030;SDS011;11179;52.106;21.024;2023-04-01T12:36:05;9.53;;;5.90;;
22030;SDS011;11179;52.106;21.024;2023-04-01T12:41:24;11.30;;;5.67;;
22030;SDS011;11179;52.106;21.024;2023-04-01T12:44:08;11.67;;;5.90;;
22030;SDS011;11179;52.106;21.024;2023-04-01T12:52:31;9.40;;;5.07;;
22030;SDS011;11179;52.106;21.024;2023-04-01T13:08:36;9.23;;;5.30;;
22030;SDS011;11179;52.106;21.024;2023-04-01T13:16:42;9.57;;;5.33;;
22030;SDS011;11179;52.106;21.024;2023-04-01T13:19:21;10.63;;;6.43;;
22030;SDS011;11179;52.106;21.024;2023-04-01T13:25:08;10.23;;;5.47;;
22030;SDS011;11179;52.106;21.024;2023-04-01T13:27:48;11.13;;;5.43;;
22030;SDS011;11179;52.106;21.024;2023-04-01T13:42:05;8.67;;;5.03;;
22030;SDS011;11179;52.106;21.024;2023-04-01T13:44:51;10.27;;;6.00;;
22030;SDS011;11179;52.106;21.024;2023-04-01T13:58:46;12.40;;;6.57;;
22030;SDS011;11179;52.106;21.024;2023-04-01T14:09:21;7.60;;;3.10;;
22030;SDS011;11179;52.106;21.024;2023-04-01T14:16:53;6.20;;;3.10;;
22030;SDS011;11179;52.106;21.024;2023-04-01T14:28:00;23.57;;;5.30;;
22030;SDS011;11179;52.106;21.024;2023-04-01T14:36:24;10.67;;;4.20;;
22030;SDS011;11179;52.106;21.024;2023-04-01T14:47:11;9.47;;;4.27;;
22030;SDS011;11179;52.106;21.024;2023-04-01T14:49:51;6.90;;;3.57;;
22030;SDS011;11179;52.106;21.024;2023-04-01T14:52:27;7.50;;;3.73;;
22030;SDS011;11179;52.106;21.024;2023-04-01T14:54:56;8.00;;;3.97;;
22030;SDS011;11179;52.106;21.024;2023-04-01T14:57:30;6.10;;;3.57;;
22030;SDS011;11179;52.106;21.024;2023-04-01T15:08:17;8.13;;;4.20;;
22030;SDS011;11179;52.106;21.024;2023-04-01T15:21:55;6.63;;;3.00;;
22030;SDS011;11179;52.106;21.024;2023-04-01T15:38:05;3.53;;;1.80;;
22030;SDS011;11179;52.106;21.024;2023-04-01T15:40:51;3.53;;;1.60;;
22030;SDS011;11179;52.106;21.024;2023-04-01T15:43:55;4.47;;;2.17;;
22030;SDS011;11179;52.106;21.024;2023-04-01T15:46:30;5.10;;;2.40;;
22030;SDS011;11179;52.106;21.024;2023-04-01T15:49:08;8.17;;;2.10;;
22030;SDS011;11179;52.106;21.024;2023-04-01T15:51:54;3.83;;;1.70;;
22030;SDS011;11179;52.106;21.024;2023-04-01T16:00:13;4.87;;;2.20;;
22030;SDS011;11179;52.106;21.024;2023-04-01T16:06:08;7.67;;;3.53;;
22030;SDS011;11179;52.106;21.024;2023-04-01T16:09:01;5.17;;;2.30;;
22030;SDS011;11179;52.106;21.024;2023-04-01T16:11:34;5.97;;;2.77;;
22030;SDS011;11179;52.106;21.024;2023-04-01T16:14:20;6.20;;;2.80;;
22030;SDS011;11179;52.106;21.024;2023-04-01T16:22:49;7.40;;;2.50;;
22030;SDS011;11179;52.106;21.024;2023-04-01T16:25:24;5.00;;;1.97;;
22030;SDS011;11179;52.106;21.024;2023-04-01T16:31:52;5.03;;;2.07;;
22030;SDS011;11179;52.106;21.024;2023-04-01T16:33:55;4.30;;;2.00;;
22030;SDS011;11179;52.106;21.024;2023-04-01T16:36:28;7.30;;;2.33;;
22030;SDS011;11179;52.106;21.024;2023-04-01T16:41:58;4.70;;;2.20;;
22030;SDS011;11179;52.106;21.024;2023-04-01T16:44:49;5.80;;;2.60;;
22030;SDS011;11179;52.106;21.024;2023-04-01T16:47:30;5.50;;;2.30;;
22030;SDS011;11179;52.106;21.024;2023-04-01T16:58:35;7.40;;;2.90;;
22030;SDS011;11179;52.106;21.024;2023-04-01T17:01:11;6.73;;;3.27;;
22030;SDS011;11179;52.106;21.024;2023-04-01T17:03:45;6.60;;;2.13;;
22030;SDS011;11179;52.106;21.024;2023-04-01T17:09:21;6.53;;;2.40;;
22030;SDS011;11179;52.106;21.024;2023-04-01T17:14:45;5.50;;;1.73;;
22030;SDS011;11179;52.106;21.024;2023-04-01T17:17:29;4.70;;;2.13;;
22030;SDS011;11179;52.106;21.024;2023-04-01T17:26:05;4.20;;;1.83;;
22030;SDS011;11179;52.106;21.024;2023-04-01T17:28:47;3.10;;;1.40;;
22030;SDS011;11179;52.106;21.024;2023-04-01T17:31:21;5.60;;;2.00;;
22030;SDS011;11179;52.106;21.024;2023-04-01T17:41:57;7.07;;;2.40;;
22030;SDS011;11179;52.106;21.024;2023-04-01T17:53:47;6.90;;;3.53;;
22030;SDS011;11179;52.106;21.024;2023-04-01T18:01:53;5.83;;;2.50;;
22030;SDS011;11179;52.106;21.024;2023-04-01T18:07:04;5.30;;;2.77;;
22030;SDS011;11179;52.106;21.024;2023-04-01T18:12:44;5.70;;;2.10;;
22030;SDS011;11179;52.106;21.024;2023-04-01T18:17:55;6.47;;;2.93;;
22030;SDS011;11179;52.106;21.024;2023-04-01T18:20:43;7.17;;;3.00;;
22030;SDS011;11179;52.106;21.024;2023-04-01T18:26:59;5.30;;;2.57;;
22030;SDS011;11179;52.106;21.024;2023-04-01T18:29:02;5.50;;;2.77;;
22030;SDS011;11179;52.106;21.024;2023-04-01T18:31:39;8.27;;;3.80;;
22030;SDS011;11179;52.106;21.024;2023-04-01T18:34:12;6.20;;;3.20;;
22030;SDS011;11179;52.106;21.024;2023-04-01T18:36:49;6.95;;;3.38;;
22030;SDS011;11179;52.106;21.024;2023-04-01T18:39:35;10.90;;;5.27;;
22030;SDS011;11179;52.106;21.024;2023-04-01T18:42:22;8.83;;;5.40;;
22030;SDS011;11179;52.106;21.024;2023-04-01T18:50:41;12.20;;;7.13;;
22030;SDS011;11179;52.106;21.024;2023-04-01T18:55:54;14.97;;;7.67;;
22030;SDS011;11179;52.106;21.024;2023-04-01T19:06:56;11.23;;;6.63;;
22030;SDS011;11179;52.106;21.024;2023-04-01T19:09:43;11.37;;;6.60;;
22030;SDS011;11179;52.106;21.024;2023-04-01T19:18:40;10.50;;;6.00;;
22030;SDS011;11179;52.106;21.024;2023-04-01T19:21:04;13.83;;;7.10;;
22030;SDS011;11179;52.106;21.024;2023-04-01T19:34:50;15.90;;;9.33;;
22030;SDS011;11179;52.106;21.024;2023-04-01T19:37:36;17.20;;;10.60;;
22030;SDS011;11179;52.106;21.024;2023-04-01T19:42:57;15.33;;;9.50;;
22030;SDS011;11179;52.106;21.024;2023-04-01T19:45:46;18.80;;;10.03;;
22030;SDS011;11179;52.106;21.024;2023-04-01T19:48:38;17.50;;;10.20;;
22030;SDS011;11179;52.106;21.024;2023-04-01T19:53:44;14.60;;;8.40;;
22030;SDS011;11179;52.106;21.024;2023-04-01T19:56:16;14.37;;;8.10;;
22030;SDS011;11179;52.106;21.024;2023-04-01T19:58:57;12.70;;;7.83;;
22030;SDS011;11179;52.106;21.024;2023-04-01T20:01:48;15.63;;;8.93;;
22030;SDS011;11179;52.106;21.024;2023-04-01T20:04:48;18.67;;;11.40;;
22030;SDS011;11179;52.106;21.024;2023-04-01T20:07:23;18.67;;;10.27;;
22030;SDS011;11179;52.106;21.024;2023-04-01T20:13:21;15.00;;;9.10;;
22030;SDS011;11179;52.106;21.024;2023-04-01T20:15:31;21.43;;;11.43;;
22030;SDS011;11179;52.106;21.024;2023-04-01T20:17:57;18.90;;;10.70;;
22030;SDS011;11179;52.106;21.024;2023-04-01T20:20:27;17.50;;;11.10;;
22030;SDS011;11179;52.106;21.024;2023-04-01T20:25:40;17.73;;;10.57;;
22030;SDS011;11179;52.106;21.024;2023-04-01T20:28:13;22.83;;;10.30;;
22030;SDS011;11179;52.106;21.024;2023-04-01T20:31:04;17.60;;;9.47;;
22030;SDS011;11179;52.106;21.024;2023-04-01T20:36:46;14.07;;;8.33;;
22030;SDS011;11179;52.106;21.024;2023-04-01T20:50:50;13.97;;;7.97;;
22030;SDS011;11179;52.106;21.024;2023-04-01T21:02:10;16.70;;;8.80;;
22030;SDS011;11179;52.106;21.024;2023-04-01T21:07:58;15.47;;;8.97;;
22030;SDS011;11179;52.106;21.024;2023-04-01T21:13:24;19.37;;;10.63;;
22030;SDS011;11179;52.106;21.024;2023-04-01T21:16:01;19.30;;;11.47;;
22030;SDS011;11179;52.106;21.024;2023-04-01T21:18:46;21.57;;;11.40;;
22030;SDS011;11179;52.106;21.024;2023-04-01T21:29:25;14.67;;;7.73;;
22030;SDS011;11179;52.106;21.024;2023-04-01T21:35:00;12.90;;;7.80;;
22030;SDS011;11179;52.106;21.024;2023-04-01T21:38:20;14.83;;;7.20;;
22030;SDS011;11179;52.106;21.024;2023-04-01T21:43:27;13.77;;;7.30;;
22030;SDS011;11179;52.106;21.024;2023-04-01T21:48:47;14.33;;;8.53;;
22030;SDS011;11179;52.106;21.024;2023-04-01T22:13:36;17.17;;;9.00;;
22030;SDS011;11179;52.106;21.024;2023-04-01T22:16:22;16.43;;;8.90;;
22030;SDS011;11179;52.106;21.024;2023-04-01T22:18:59;14.93;;;8.80;;
22030;SDS011;11179;52.106;21.024;2023-04-01T22:29:33;15.00;;;8.17;;
22030;SDS011;11179;52.106;21.024;2023-04-01T22:32:11;14.33;;;7.93;;
22030;SDS011;11179;52.106;21.024;2023-04-01T22:34:57;17.90;;;7.57;;
22030;SDS011;11179;52.106;21.024;2023-04-01T22:43:08;12.60;;;7.30;;
22030;SDS011;11179;52.106;21.024;2023-04-01T22:45:44;14.43;;;7.77;;
22030;SDS011;11179;52.106;21.024;2023-04-01T22:56:41;11.83;;;5.53;;
22030;SDS011;11179;52.106;21.024;2023-04-01T22:59:22;11.80;;;5.80;;
22030;SDS011;11179;52.106;21.024;2023-04-01T23:02:11;12.73;;;5.87;;
22030;SDS011;11179;52.106;21.024;2023-04-01T23:04:42;13.20;;;7.70;;
22030;SDS011;11179;52.106;21.024;2023-04-01T23:07:24;9.57;;;6.37;;
22030;SDS011;11179;52.106;21.024;2023-04-01T23:09:58;8.73;;;4.97;;
22030;SDS011;11179;52.106;21.024;2023-04-01T23:12:26;9.60;;;5.00;;
22030;SDS011;11179;52.106;21.024;2023-04-01T23:14:52;9.60;;;4.77;;
22030;SDS011;11179;52.106;21.024;2023-04-01T23:25:57;9.00;;;4.87;;
22030;SDS011;11179;52.106;21.024;2023-04-01T23:31:24;9.17;;;4.67;;
22030;SDS011;11179;52.106;21.024;2023-04-01T23:36:47;10.00;;;4.93;;
22030;SDS011;11179;52.106;21.024;2023-04-01T23:44:56;10.03;;;6.13;;
22030;SDS011;11179;52.106;21.024;2023-04-01T23:47:24;17.57;;;8.37;;
22030;SDS011;11179;52.106;21.024;2023-04-01T23:49:59;15.10;;;7.73;;
22030;SDS011;11179;52.106;21.024;2023-04-01T23:52:31;12.27;;;7.33;;
22030;SDS011;11179;52.106;21.024;2023-04-01T23:55:03;15.60;;;7.37;;
22030;SDS011;11179;52.106;21.024;2023-04-01T23:57:40;13.27;;;6.57;;
